Time;durP1;ratioP1;P1;durP2;ratioP2;P2;SDS_P1;SDS_P2;PMS_P1;PMS_P2;Temp;Humidity;BMP_temperature;BMP_pressure;BME280_temperature;BME280_humidity;BME280_pressure;Samples;Min_cycle;Max_cycle;Signal;HPM_P1;HPM_P2
2021/05/02 00:01:48;;;;;;;13.40;6.00;;;;;;;18.95;67.01;98465.47;4278897;33;35542;-93
2021/05/02 00:04:23;;;;;;;13.65;6.30;;;;;;;18.69;67.60;98462.69;4278829;33;34831;-93
2021/05/02 00:06:55;;;;;;;10.32;4.82;;;;;;;19.06;66.24;98458.94;4296406;33;33810;-87
2021/05/02 00:09:32;;;;;;;8.57;5.47;;;;;;;18.84;66.69;98450.94;4303519;33;33618;-88
2021/05/02 00:12:04;;;;;;;9.57;5.62;;;;;;;18.81;66.78;98449.56;4302429;33;33760;-92
2021/05/02 00:14:38;;;;;;;11.50;5.90;;;;;;;18.63;67.45;98450.94;4291869;33;33646;-93
2021/05/02 00:17:10;;;;;;;7.22;5.28;;;;;;;18.61;67.66;98446.84;4303587;33;33436;-93
2021/05/02 00:19:46;;;;;;;10.13;5.32;;;;;;;18.63;67.66;98447.38;4302674;33;34241;-93
2021/05/02 00:22:19;;;;;;;9.07;5.85;;;;;;;18.45;68.30;98446.78;4300109;33;34382;-93
2021/05/02 00:24:53;;;;;;;8.70;5.45;;;;;;;18.72;67.25;98444.94;4295945;33;34507;-93
2021/05/02 00:27:26;;;;;;;10.18;5.62;;;;;;;18.68;67.50;98441.91;4300333;33;33203;-88
2021/05/02 00:30:03;;;;;;;8.18;5.55;;;;;;;18.43;68.21;98429.84;4300479;33;34372;-87
2021/05/02 00:32:35;;;;;;;11.25;4.90;;;;;;;18.48;67.95;98421.63;4312265;33;33737;-93
2021/05/02 00:35:09;;;;;;;11.80;5.97;;;;;;;18.82;66.70;98426.59;4290652;33;33916;-87
2021/05/02 00:37:42;;;;;;;12.05;4.65;;;;;;;18.69;67.13;98422.47;4309659;33;33328;-93
2021/05/02 00:40:20;;;;;;;8.77;4.50;;;;;;;18.72;67.48;98421.13;4285508;33;34610;-93
2021/05/02 00:42:54;;;;;;;8.27;4.53;;;;;;;18.51;68.64;98417.53;4308403;33;34581;-93
2021/05/02 00:45:49;;;;;;;13.35;6.03;;;;;;;18.65;68.65;98412.34;4277918;33;35534;-86
2021/05/02 00:48:28;;;;;;;11.20;5.60;;;;;;;18.75;68.72;98409.63;4313523;33;33020;-87
2021/05/02 00:51:04;;;;;;;15.82;5.53;;;;;;;18.67;69.00;98402.78;4313437;33;33614;-87
2021/05/02 00:54:05;;;;;;;9.40;5.60;;;;;;;18.61;69.16;98392.13;4293436;33;36933;-85
2021/05/02 00:56:46;;;;;;;12.23;5.03;;;;;;;18.25;70.58;98397.50;4303505;33;33310;-91
2021/05/02 00:59:22;;;;;;;9.43;5.10;;;;;;;18.67;68.82;98391.84;4276914;33;33784;-92
2021/05/02 01:01:56;;;;;;;10.35;5.40;;;;;;;18.69;68.85;98391.56;4278339;33;35591;-94
2021/05/02 01:04:49;;;;;;;8.98;5.10;;;;;;;18.86;68.26;98378.47;4301861;33;32656;-93
2021/05/02 01:07:22;;;;;;;9.68;5.82;;;;;;;19.18;67.14;98374.56;4288680;33;33686;-92
2021/05/02 01:09:59;;;;;;;8.55;5.47;;;;;;;19.02;67.56;98362.00;4277795;33;34699;-92
2021/05/02 01:12:37;;;;;;;15.45;5.70;;;;;;;18.83;68.15;98356.25;4299623;33;33689;-91
2021/05/02 01:15:12;;;;;;;8.35;4.20;;;;;;;19.11;67.28;98363.06;4301678;33;35962;-86
2021/05/02 01:17:45;;;;;;;10.90;5.50;;;;;;;19.05;67.41;98350.50;4289556;33;34371;-86
2021/05/02 01:20:17;;;;;;;10.85;5.20;;;;;;;18.92;67.90;98351.06;4300374;33;33944;-86
2021/05/02 01:22:51;;;;;;;12.07;5.37;;;;;;;19.01;67.72;98357.63;4289876;33;34601;-86
2021/05/02 01:25:24;;;;;;;7.72;4.57;;;;;;;18.86;68.02;98351.09;4302172;33;33621;-91
2021/05/02 01:27:58;;;;;;;16.33;5.25;;;;;;;19.13;66.81;98349.94;4289858;33;33649;-92
2021/05/02 01:30:31;;;;;;;12.88;5.32;;;;;;;19.17;66.50;98351.00;4298752;33;35109;-91
2021/05/02 01:33:05;;;;;;;8.27;4.25;;;;;;;19.15;66.42;98350.47;4287008;33;34672;-91
2021/05/02 01:35:37;;;;;;;18.48;5.95;;;;;;;19.34;65.75;98355.34;4277714;33;34853;-86
2021/05/02 01:38:10;;;;;;;13.20;5.72;;;;;;;19.26;66.31;98359.47;4300630;33;35980;-86
2021/05/02 01:40:42;;;;;;;10.27;6.50;;;;;;;18.95;67.17;98353.25;4287085;33;33178;-86
2021/05/02 01:43:15;;;;;;;16.10;5.20;;;;;;;19.09;66.94;98342.53;4301716;33;33656;-86
2021/05/02 01:45:47;;;;;;;15.18;6.53;;;;;;;19.14;66.79;98346.09;4311326;33;34829;-91
2021/05/02 01:48:22;;;;;;;16.10;5.10;;;;;;;18.86;67.91;98344.78;4298003;33;34009;-85
2021/05/02 01:51:05;;;;;;;8.10;4.82;;;;;;;19.15;66.80;98334.06;4301361;33;33877;-85
2021/05/02 01:53:38;;;;;;;14.20;6.07;;;;;;;19.29;66.29;98330.72;4277755;33;37324;-86
2021/05/02 01:56:13;;;;;;;15.27;4.75;;;;;;;19.31;65.95;98328.53;4290820;33;33745;-85
2021/05/02 01:58:46;;;;;;;10.63;4.82;;;;;;;19.25;66.16;98329.63;4290549;33;34141;-87
2021/05/02 02:01:19;;;;;;;13.85;5.47;;;;;;;19.20;66.27;98331.28;4311869;33;32910;-84
2021/05/02 02:03:54;;;;;;;11.85;5.18;;;;;;;19.20;66.38;98339.50;4290793;33;33484;-86
2021/05/02 02:06:27;;;;;;;10.30;4.97;;;;;;;19.06;67.06;98341.19;4290780;33;33507;-86
2021/05/02 02:09:06;;;;;;;12.40;5.40;;;;;;;19.13;67.08;98341.75;4289157;33;33545;-86
2021/05/02 02:11:38;;;;;;;10.80;5.47;;;;;;;19.03;67.58;98336.28;4288916;33;34792;-86
2021/05/02 02:14:15;;;;;;;10.75;5.07;;;;;;;18.86;68.02;98339.31;4300919;33;33904;-86
2021/05/02 02:16:58;;;;;;;15.43;5.90;;;;;;;19.17;66.87;98342.78;4290585;33;34688;-85
2021/05/02 02:19:31;;;;;;;9.25;5.15;;;;;;;18.53;69.31;98350.53;4301895;33;33325;-86
2021/05/02 02:22:04;;;;;;;9.45;5.53;;;;;;;18.76;68.47;98342.84;4300689;33;32985;-86
2021/05/02 02:24:47;;;;;;;14.43;5.32;;;;;;;18.95;67.86;98337.66;4312438;33;34604;-87
2021/05/02 02:27:20;;;;;;;8.35;4.97;;;;;;;18.81;68.45;98337.34;4301263;33;34605;-87
2021/05/02 02:29:57;;;;;;;14.57;5.72;;;;;;;18.87;68.08;98330.81;4297727;33;33662;-86
2021/05/02 02:32:29;;;;;;;12.35;5.60;;;;;;;18.92;67.88;98331.91;4294668;33;34145;-86
2021/05/02 02:35:04;;;;;;;21.20;6.65;;;;;;;19.13;67.05;98335.41;4289117;33;32628;-87
2021/05/02 02:37:38;;;;;;;10.10;6.30;;;;;;;18.75;68.30;98327.53;4294118;33;32586;-87
2021/05/02 02:40:13;;;;;;;13.88;6.05;;;;;;;18.75;68.37;98332.19;4302206;33;34364;-86
2021/05/02 02:42:46;;;;;;;16.87;5.90;;;;;;;18.87;67.83;98347.22;4288772;33;31845;-86
2021/05/02 02:45:19;;;;;;;11.77;5.55;;;;;;;19.03;67.14;98355.44;4289638;33;33889;-87
2021/05/02 02:47:53;;;;;;;18.70;7.03;;;;;;;18.75;68.18;98338.47;4300131;33;35082;-86
2021/05/02 02:50:28;;;;;;;22.20;6.90;;;;;;;18.99;67.50;98354.34;4302915;33;33648;-86
2021/05/02 02:53:03;;;;;;;17.25;7.05;;;;;;;18.51;68.88;98355.44;4288943;33;32930;-87
2021/05/02 02:55:38;;;;;;;17.73;6.47;;;;;;;18.64;68.43;98345.06;4289524;33;33622;-87
2021/05/02 02:58:14;;;;;;;16.33;6.10;;;;;;;18.47;69.22;98343.41;4296890;33;34588;-87
2021/05/02 03:00:52;;;;;;;17.90;6.03;;;;;;;18.82;68.04;98340.94;4300595;33;33569;-86
2021/05/02 03:03:25;;;;;;;16.60;6.65;;;;;;;18.32;69.72;98337.91;4302702;33;33299;-87
2021/05/02 03:06:00;;;;;;;17.55;7.75;;;;;;;17.51;73.07;98331.16;4289663;33;34047;-87
2021/05/02 03:08:36;;;;;;;16.20;6.62;;;;;;;18.22;70.41;98333.28;4310261;33;33393;-86
2021/05/02 03:11:09;;;;;;;13.38;7.45;;;;;;;18.40;69.94;98326.44;4289247;33;33833;-86
2021/05/02 03:13:43;;;;;;;13.73;6.18;;;;;;;18.53;68.98;98323.16;4299924;33;33231;-86
2021/05/02 03:16:20;;;;;;;11.48;5.70;;;;;;;18.78;68.49;98321.50;4300998;33;34719;-86
2021/05/02 03:19:14;;;;;;;14.25;6.20;;;;;;;18.74;68.54;98323.13;4300052;33;34668;-87
2021/05/02 03:22:06;;;;;;;16.37;6.20;;;;;;;18.71;68.78;98323.69;4289174;33;33232;-86
2021/05/02 03:24:41;;;;;;;20.02;7.10;;;;;;;18.81;68.40;98326.41;4285927;33;33297;-86
2021/05/02 03:27:27;;;;;;;20.08;6.15;;;;;;;18.82;68.42;98327.25;4292102;33;34775;-86
2021/05/02 03:30:06;;;;;;;14.80;7.18;;;;;;;18.64;69.22;98342.31;4289337;33;34877;-86
2021/05/02 03:32:48;;;;;;;13.73;6.53;;;;;;;18.63;69.26;98335.19;4288774;33;33656;-85
2021/05/02 03:35:24;;;;;;;23.75;8.00;;;;;;;18.65;69.08;98333.00;4312365;33;35533;-86
2021/05/02 03:38:16;;;;;;;24.63;7.93;;;;;;;18.62;69.34;98336.28;4294649;33;34273;-86
2021/05/02 03:40:51;;;;;;;22.58;8.25;;;;;;;18.47;69.84;98327.00;4300629;33;35315;-85
2021/05/02 03:43:23;;;;;;;16.60;7.82;;;;;;;18.73;68.61;98320.66;4299118;33;34016;-87
2021/05/02 03:45:56;;;;;;;15.70;7.95;;;;;;;18.74;68.72;98325.88;4311806;33;34057;-87
2021/05/02 03:48:28;;;;;;;21.98;7.53;;;;;;;18.76;68.68;98331.06;4300129;33;35780;-87
2021/05/02 03:51:00;;;;;;;16.05;7.18;;;;;;;18.77;68.60;98336.28;4288673;33;33815;-87
2021/05/02 03:53:33;;;;;;;16.05;7.82;;;;;;;18.72;68.71;98330.00;4288024;33;33684;-87
2021/05/02 03:56:05;;;;;;;21.17;7.97;;;;;;;18.80;68.25;98330.28;4299081;33;32849;-87
2021/05/02 03:58:38;;;;;;;14.05;7.25;;;;;;;18.48;69.42;98325.88;4299723;33;33132;-87
2021/05/02 04:01:11;;;;;;;25.65;8.45;;;;;;;18.68;68.88;98326.97;4311520;33;33689;-86
2021/05/02 04:03:44;;;;;;;17.15;7.53;;;;;;;18.70;68.70;98335.75;4311060;33;33693;-86
2021/05/02 04:06:17;;;;;;;22.98;9.18;;;;;;;18.57;68.99;98323.44;4299797;33;32484;-86
2021/05/02 04:08:49;;;;;;;22.27;7.55;;;;;;;18.69;68.79;98334.09;4299626;33;34575;-88
2021/05/02 04:11:21;;;;;;;22.13;8.70;;;;;;;18.98;67.67;98328.06;4288181;33;34370;-87
2021/05/02 04:13:54;;;;;;;14.52;6.78;;;;;;;19.09;67.12;98329.69;4299801;33;33157;-87
2021/05/02 04:16:26;;;;;;;14.85;6.87;;;;;;;18.75;68.47;98333.00;4301383;33;34250;-87
2021/05/02 04:19:03;;;;;;;16.92;7.07;;;;;;;18.63;69.02;98333.28;4301289;33;33664;-87
2021/05/02 04:21:37;;;;;;;14.55;7.70;;;;;;;19.02;67.96;98342.84;4287255;33;33786;-93
2021/05/02 04:24:10;;;;;;;13.52;7.07;;;;;;;18.93;68.04;98355.47;4297459;33;33653;-93
2021/05/02 04:26:47;;;;;;;18.87;7.28;;;;;;;18.80;68.67;98357.63;4290277;33;33949;-93
2021/05/02 04:29:22;;;;;;;17.77;8.68;;;;;;;18.46;69.20;98349.97;4290394;33;33664;-93
2021/05/02 04:31:55;;;;;;;23.20;8.00;;;;;;;18.63;68.83;98359.81;4275853;33;35681;-91
2021/05/02 04:34:27;;;;;;;21.95;9.93;;;;;;;18.87;68.11;98351.91;4295618;33;33242;-86
2021/05/02 04:37:01;;;;;;;18.27;8.38;;;;;;;18.76;68.25;98359.28;4301665;33;35148;-86
2021/05/02 04:39:33;;;;;;;14.57;8.00;;;;;;;19.13;67.00;98360.91;4291633;33;33315;-92
2021/05/02 04:42:06;;;;;;;19.52;8.18;;;;;;;18.93;67.70;98360.94;4301630;33;34935;-86
2021/05/02 04:44:38;;;;;;;18.15;8.57;;;;;;;19.03;67.09;98358.19;4290088;33;34141;-92
2021/05/02 04:47:17;;;;;;;22.42;9.07;;;;;;;19.14;66.98;98348.84;4289484;33;33128;-92
2021/05/02 04:49:50;;;;;;;16.45;7.55;;;;;;;19.14;66.61;98346.09;4300294;33;33902;-91
2021/05/02 04:52:22;;;;;;;17.35;7.78;;;;;;;19.27;66.41;98352.09;4278620;33;32283;-86
2021/05/02 04:54:55;;;;;;;18.67;8.43;;;;;;;19.25;66.65;98343.34;4289480;33;37154;-92
2021/05/02 04:57:27;;;;;;;34.17;10.23;;;;;;;19.15;67.12;98347.75;4288366;33;33249;-86
2021/05/02 04:59:59;;;;;;;21.30;8.27;;;;;;;19.43;66.08;98353.69;4290912;33;33556;-86
2021/05/02 05:02:32;;;;;;;21.60;8.13;;;;;;;19.57;65.43;98349.25;4289219;33;34022;-92
2021/05/02 05:05:05;;;;;;;19.60;7.25;;;;;;;19.19;66.67;98372.63;4301323;33;34894;-92
2021/05/02 05:07:38;;;;;;;16.35;7.70;;;;;;;19.17;66.50;98361.97;4288411;33;34354;-85
2021/05/02 05:10:11;;;;;;;24.05;8.10;;;;;;;19.56;65.47;98364.03;4290271;33;33716;-91
2021/05/02 05:12:43;;;;;;;29.30;9.60;;;;;;;18.97;67.38;98351.88;4290670;33;33643;-93
2021/05/02 05:15:17;;;;;;;21.87;6.97;;;;;;;19.14;66.44;98350.75;4289761;33;33424;-94
2021/05/02 05:17:49;;;;;;;18.95;7.93;;;;;;;19.22;66.33;98353.75;4278297;33;34324;-86
2021/05/02 05:33:15;;;;;;;17.90;6.15;;;;;;;20.08;63.70;98369.31;4498685;31;99038;-90
2021/05/02 05:35:48;;;;;;;19.08;6.07;;;;;;;20.08;63.70;98369.31;4492264;31;34075;-94
2021/05/02 05:38:20;;;;;;;20.35;6.35;;;;;;;19.07;66.77;98377.59;4488874;31;33642;-89
2021/05/02 05:41:15;;;;;;;10.50;5.30;;;;;;;19.37;65.81;98371.22;4498140;26;35271;-94
2021/05/02 05:43:47;;;;;;;8.65;5.20;;;;;;;18.98;67.28;98363.66;4439826;32;33493;-90
2021/05/02 05:46:21;;;;;;;15.35;5.53;;;;;;;19.35;66.41;98374.25;4437630;32;34549;-96
2021/05/02 05:48:53;;;;;;;13.07;4.90;;;;;;;19.38;66.59;98370.94;4427251;32;35449;-90
2021/05/02 05:51:26;;;;;;;17.40;4.82;;;;;;;19.45;65.87;98375.34;4481838;27;33396;-92
2021/05/02 05:53:58;;;;;;;13.25;4.37;;;;;;;19.37;65.87;98382.19;4447892;32;33408;-93
2021/05/02 05:56:32;;;;;;;20.98;4.47;;;;;;;19.05;67.00;98369.66;4431973;32;34664;-87
2021/05/02 05:59:08;;;;;;;11.57;3.47;;;;;;;19.45;65.72;98356.16;4455862;32;35086;-93
2021/05/02 06:01:59;;;;;;;15.00;4.65;;;;;;;19.12;65.42;98364.72;4437454;32;33309;-94
2021/05/02 06:05:14;;;;;;;9.82;3.50;;;;;;;19.15;66.88;98369.66;4443979;26;34466;-96
2021/05/02 06:08:25;;;;;;;18.10;3.47;;;;;;;19.58;64.93;98361.84;4393736;27;34262;-96
2021/05/02 06:11:09;;;;;;;12.73;3.05;;;;;;;19.11;66.10;98365.81;4361156;32;35035;-92
2021/05/02 06:13:50;;;;;;;10.27;2.75;;;;;;;19.83;63.77;98373.00;4355681;33;33081;-92
2021/05/02 06:16:32;;;;;;;12.37;2.65;;;;;;;19.85;63.11;98370.78;4338792;33;35929;-91
2021/05/02 06:19:05;;;;;;;14.80;2.87;;;;;;;19.82;62.93;98388.66;4341607;33;33177;-86
2021/05/02 06:22:31;;;;;;;13.93;3.25;;;;;;;19.89;61.69;98371.88;4359815;33;33611;-96
2021/05/02 06:25:13;;;;;;;16.70;2.75;;;;;;;20.01;61.05;98385.25;4340514;33;33162;-93
2021/05/02 06:28:15;;;;;;;14.90;2.53;;;;;;;20.30;59.96;98388.13;4494995;27;33059;-94
2021/05/02 06:31:33;;;;;;;17.08;2.90;;;;;;;20.03;61.22;98391.28;4406133;27;20104;-96
2021/05/02 06:35:04;;;;;;;9.88;2.55;;;;;;;20.79;58.70;98395.47;4327143;33;20124;-96
2021/05/02 06:38:01;;;;;;;21.35;2.97;;;;;;;20.57;59.07;98401.37;4307241;33;34148;-96
2021/05/02 06:44:51;;;;;;;7.90;1.90;;;;;;;20.27;60.05;98411.44;4343410;33;20132;-96
2021/05/02 06:48:04;;;;;;;14.70;2.70;;;;;;;20.29;58.52;98409.22;4273560;33;35082;-95
2021/05/02 06:50:50;;;;;;;13.45;2.00;;;;;;;20.25;58.47;98408.19;4286610;33;33675;-93
2021/05/02 06:53:29;;;;;;;11.82;1.73;;;;;;;20.59;57.38;98414.81;4279346;33;33146;-94
2021/05/02 06:56:08;;;;;;;9.02;1.73;;;;;;;21.34;54.46;98430.13;4277175;33;32819;-94
2021/05/02 06:59:03;;;;;;;9.85;2.33;;;;;;;20.88;53.72;98420.34;4286398;33;32868;-94
2021/05/02 07:01:56;;;;;;;16.15;2.97;;;;;;;20.81;53.13;98434.44;4286840;33;33752;-86
2021/05/02 07:04:33;;;;;;;8.60;1.80;;;;;;;21.25;52.68;98432.66;4287961;33;33440;-90
2021/05/02 07:07:09;;;;;;;7.68;2.17;;;;;;;20.86;52.97;98428.06;4248522;33;33022;-95
2021/05/02 07:10:07;;;;;;;6.82;2.00;;;;;;;20.81;53.85;98425.38;4285112;28;32781;31
2021/05/02 07:12:44;;;;;;;9.82;1.90;;;;;;;21.17;52.93;98411.34;4311757;33;33726;-95
2021/05/02 07:15:24;;;;;;;12.65;1.90;;;;;;;20.79;52.99;98425.66;4316770;33;34335;-93
2021/05/02 07:18:05;;;;;;;7.43;2.35;;;;;;;21.05;52.08;98452.91;4326648;33;33121;-95
2021/05/02 07:24:57;;;;;;;8.00;1.95;;;;;;;21.55;51.86;98443.69;4322272;33;20151;-86
2021/05/02 07:27:30;;;;;;;11.77;1.80;;;;;;;21.17;52.13;98455.28;4327474;33;32327;-85
2021/05/02 07:30:03;;;;;;;8.65;1.58;;;;;;;21.62;52.47;98452.41;4305788;33;33818;-85
2021/05/02 07:32:36;;;;;;;10.80;1.98;;;;;;;21.68;51.74;98445.75;4316952;33;32264;-85
2021/05/02 07:35:12;;;;;;;7.45;2.45;;;;;;;21.68;51.88;98452.03;4343474;33;33827;-92
2021/05/02 07:37:47;;;;;;;10.90;1.62;;;;;;;21.51;51.71;98477.25;4327532;33;33724;-85
2021/05/02 07:40:20;;;;;;;45.63;3.30;;;;;;;22.01;52.19;98490.72;4312428;33;32916;-87
2021/05/02 07:42:59;;;;;;;6.87;0.65;;;;;;;19.71;49.33;98565.16;4304085;33;33694;-88
2021/05/02 07:45:36;;;;;;;2.92;0.60;;;;;;;18.61;51.95;98550.81;4317760;33;33728;-95
2021/05/02 07:48:09;;;;;;;6.55;0.50;;;;;;;18.34;51.96;98579.97;4318422;33;34435;-87
2021/05/02 07:50:41;;;;;;;1.48;0.30;;;;;;;17.45;53.66;98600.66;4318167;33;33234;-88
2021/05/02 07:53:20;;;;;;;0.70;0.30;;;;;;;16.76;55.54;98589.31;4303315;33;33501;-89
2021/05/02 07:55:56;;;;;;;2.83;0.52;;;;;;;16.57;56.01;98607.94;4303280;33;35818;-87
2021/05/02 07:58:28;;;;;;;1.85;0.40;;;;;;;16.55;56.73;98628.34;4314790;33;34033;-87
2021/05/02 08:01:09;;;;;;;0.80;0.20;;;;;;;16.09;58.52;98644.09;4319856;33;33112;-96
2021/05/02 08:03:42;;;;;;;1.05;0.20;;;;;;;15.69;60.50;98652.19;4317156;33;33717;-88
2021/05/02 08:06:17;;;;;;;0.35;0.10;;;;;;;15.71;60.17;98649.22;4304222;33;33289;-96
2021/05/02 08:08:54;;;;;;;0.10;0.10;;;;;;;15.50;60.48;98653.50;4316604;33;33538;-88
2021/05/02 08:11:33;;;;;;;2.65;0.32;;;;;;;15.53;60.90;98661.16;4304317;33;34778;-87
2021/05/02 08:14:07;;;;;;;0.65;0.20;;;;;;;15.03;60.88;98659.16;4301606;33;33961;-87
2021/05/02 08:16:40;;;;;;;0.65;0.20;;;;;;;15.05;65.09;98667.94;4313064;33;35101;-87
2021/05/02 08:19:13;;;;;;;1.55;0.20;;;;;;;14.65;64.46;98675.84;4327966;33;34425;-92
2021/05/02 08:21:45;;;;;;;0.20;0.20;;;;;;;14.79;64.57;98683.72;4304682;33;34025;-86
2021/05/02 08:24:18;;;;;;;0.73;0.20;;;;;;;14.96;63.13;98687.34;4338946;33;34573;-86
2021/05/02 08:26:50;;;;;;;0.20;0.20;;;;;;;14.76;62.90;98690.50;4332004;33;34662;-92
2021/05/02 08:29:23;;;;;;;1.48;0.30;;;;;;;14.74;63.72;98689.06;4320085;33;35268;-87
2021/05/02 08:31:55;;;;;;;1.50;0.20;;;;;;;15.09;61.87;98690.84;4332653;33;33816;-96
2021/05/02 08:34:57;;;;;;;0.10;0.03;;;;;;;15.26;60.96;98702.59;4320199;33;35403;-96
2021/05/02 08:37:30;;;;;;;4.87;0.20;;;;;;;15.20;60.41;98702.78;4331115;33;34230;-93
2021/05/02 08:40:05;;;;;;;3.70;0.10;;;;;;;14.61;60.10;98710.03;4318052;33;34401;-89
2021/05/02 08:42:38;;;;;;;3.60;0.70;;;;;;;14.63;59.61;98701.62;4332815;33;33105;-94
2021/05/02 08:45:14;;;;;;;0.10;0.10;;;;;;;14.90;59.02;98711.97;4309179;33;34568;-95
2021/05/02 08:47:50;;;;;;;0.22;0.10;;;;;;;14.89;58.61;98713.03;4338775;32;33751;-96
2021/05/02 08:50:23;;;;;;;3.10;0.10;;;;;;;14.55;60.66;98712.81;4344167;33;33136;-89
2021/05/02 08:52:56;;;;;;;2.78;0.17;;;;;;;14.64;60.35;98712.25;4354382;32;33000;-94
2021/05/02 08:55:29;;;;;;;0.35;0.20;;;;;;;14.35;62.64;98741.22;4317814;33;34731;-89
2021/05/02 08:58:03;;;;;;;1.15;0.10;;;;;;;14.41;64.36;98721.22;4319395;33;34856;-94
2021/05/02 09:00:36;;;;;;;0.50;0.13;;;;;;;14.51;63.06;98727.97;4329458;33;33458;-94
2021/05/02 09:03:09;;;;;;;0.35;0.20;;;;;;;14.47;62.37;98716.75;4330864;33;34212;-94
2021/05/02 09:05:47;;;;;;;1.98;0.20;;;;;;;14.64;61.21;98733.16;4332071;33;33427;-91
2021/05/02 09:08:33;;;;;;;0.20;0.20;;;;;;;14.48;61.73;98735.53;4329003;33;34773;-91
2021/05/02 09:11:07;;;;;;;4.40;0.17;;;;;;;14.59;60.02;98742.00;4329874;33;34209;-90
2021/05/02 09:13:52;;;;;;;0.57;0.17;;;;;;;14.52;60.72;98746.78;4336283;33;32720;-91
2021/05/02 09:16:27;;;;;;;1.05;0.30;;;;;;;14.61;59.50;98748.09;4320617;33;37669;-91
2021/05/02 09:19:00;;;;;;;1.30;0.30;;;;;;;15.01;58.79;98760.06;4331532;33;33750;-92
2021/05/02 09:21:33;;;;;;;1.73;0.20;;;;;;;14.93;57.63;98768.63;4319843;33;32924;-92
2021/05/02 09:24:08;;;;;;;11.60;0.68;;;;;;;15.09;57.33;98764.31;4331741;33;34071;-92
2021/05/02 09:26:41;;;;;;;2.60;0.30;;;;;;;15.47;57.42;98763.72;4319615;33;33798;-92
2021/05/02 09:29:13;;;;;;;2.15;0.20;;;;;;;15.82;55.95;98770.09;4332097;33;35349;-92
2021/05/02 09:31:47;;;;;;;1.05;0.10;;;;;;;15.70;55.83;98770.12;4353495;32;33185;-94
2021/05/02 09:34:19;;;;;;;2.60;0.45;;;;;;;15.70;54.61;98779.13;4340463;33;33897;-93
2021/05/02 09:36:57;;;;;;;0.52;0.40;;;;;;;15.30;55.29;98798.22;4332297;33;34484;-91
2021/05/02 09:39:47;;;;;;;0.90;0.35;;;;;;;15.34;55.41;98802.97;4300114;33;32150;-95
2021/05/02 09:42:36;;;;;;;0.60;0.50;;;;;;;15.24;55.13;98810.06;4289004;33;33481;-92
2021/05/02 09:45:09;;;;;;;0.95;0.55;;;;;;;14.87;56.01;98824.00;4311241;33;32719;-92
2021/05/02 09:47:44;;;;;;;1.80;0.50;;;;;;;15.20;55.14;98817.91;4300643;33;34384;-92
2021/05/02 09:50:25;;;;;;;2.25;0.40;;;;;;;15.23;55.17;98809.25;4287526;33;33287;-95
2021/05/02 09:53:07;;;;;;;1.60;0.40;;;;;;;15.36;54.77;98817.16;4288495;33;35091;-91
2021/05/02 09:55:46;;;;;;;0.60;0.30;;;;;;;15.34;55.31;98824.75;4313048;33;33027;-93
2021/05/02 09:58:48;;;;;;;6.28;0.43;;;;;;;15.42;54.32;98826.25;4293085;33;34944;-96
2021/05/02 10:01:22;;;;;;;0.80;0.40;;;;;;;15.65;54.67;98830.78;4300300;33;32746;-93
2021/05/02 10:03:59;;;;;;;0.82;0.30;;;;;;;15.72;54.05;98825.19;4288145;33;33567;-92
2021/05/02 10:06:37;;;;;;;1.33;0.40;;;;;;;15.89;53.25;98819.81;4301351;33;36088;-92
2021/05/02 10:09:12;;;;;;;1.90;0.40;;;;;;;15.75;53.38;98841.06;4290839;33;33520;-91
2021/05/02 10:11:44;;;;;;;0.93;0.40;;;;;;;15.55;53.63;98852.34;4318634;33;33677;-93
2021/05/02 10:14:17;;;;;;;0.50;0.40;;;;;;;15.85;53.96;98849.47;4304039;33;33682;-91
2021/05/02 10:16:52;;;;;;;1.98;0.50;;;;;;;16.08;53.86;98849.56;4321611;33;33266;-91
2021/05/02 10:19:25;;;;;;;0.50;0.43;;;;;;;15.91;53.49;98849.53;4331674;33;35214;-91
2021/05/02 10:21:57;;;;;;;0.93;0.65;;;;;;;15.72;54.06;98857.87;4336726;33;33693;-91
2021/05/02 10:27:47;;;;;;;2.87;0.50;;;;;;;15.40;55.82;98868.38;4198062;33;35536;-92
2021/05/02 10:30:40;;;;;;;1.65;0.80;;;;;;;15.38;58.06;98873.25;4332498;33;33383;-92
2021/05/02 10:33:14;;;;;;;1.92;0.60;;;;;;;15.55;56.86;98868.69;4332696;33;33850;-91
2021/05/02 10:35:53;;;;;;;0.60;0.60;;;;;;;15.31;56.34;98882.38;4331790;33;33375;-91
2021/05/02 10:38:53;;;;;;;0.98;0.75;;;;;;;15.22;55.37;98886.50;4318887;33;32844;-92
2021/05/02 10:42:03;;;;;;;2.12;0.60;;;;;;;14.79;56.98;98888.56;4316103;33;35391;-95
2021/05/02 10:44:58;;;;;;;9.23;0.70;;;;;;;14.94;57.22;98896.25;4352582;32;33902;-94
2021/05/02 10:47:43;;;;;;;3.58;0.80;;;;;;;14.75;57.97;98897.44;4357648;32;35152;-95
2021/05/02 10:50:43;;;;;;;6.07;0.95;;;;;;;14.73;58.86;98904.97;4316672;33;35690;-95
2021/05/02 10:53:17;;;;;;;1.00;0.82;;;;;;;15.08;58.54;98888.66;4327833;33;34106;-90
2021/05/02 10:56:06;;;;;;;3.00;0.90;;;;;;;15.10;57.04;98894.69;4315194;33;34478;-95
2021/05/02 10:58:39;;;;;;;2.77;0.90;;;;;;;15.06;58.33;98900.84;4300308;33;33498;-90
2021/05/02 11:01:26;;;;;;;1.27;1.00;;;;;;;15.09;60.04;98909.38;4312101;33;34342;-90
2021/05/02 11:03:58;;;;;;;4.82;0.93;;;;;;;15.76;56.82;98901.81;4310821;33;33561;-91
2021/05/02 11:06:40;;;;;;;0.52;0.52;;;;;;;15.84;54.58;98899.56;4299471;33;35731;-90
2021/05/02 11:09:13;;;;;;;1.23;0.68;;;;;;;15.94;53.33;98917.16;4313835;33;34079;-95
2021/05/02 11:12:02;;;;;;;8.27;0.90;;;;;;;15.23;54.01;98931.72;4335933;33;35325;-96
2021/05/02 11:14:36;;;;;;;2.85;1.42;;;;;;;15.17;55.31;98925.34;4339719;33;35337;-96
2021/05/02 11:17:21;;;;;;;1.15;0.95;;;;;;;14.74;54.95;98926.50;4310437;33;34612;-95
2021/05/02 11:19:55;;;;;;;1.65;0.75;;;;;;;14.93;54.65;98945.47;4318489;33;34242;-96
2021/05/02 11:22:46;;;;;;;2.45;0.82;;;;;;;15.27;54.71;98945.69;4317718;33;33677;-95
2021/05/02 11:25:19;;;;;;;1.67;0.70;;;;;;;15.44;54.19;98953.97;4320625;33;34439;-90
2021/05/02 11:27:55;;;;;;;0.82;0.82;;;;;;;15.70;53.41;98948.03;4321704;33;34804;-90
2021/05/02 11:30:30;;;;;;;2.42;0.73;;;;;;;16.43;56.81;98950.25;4331922;33;33168;-90
2021/05/02 11:33:20;;;;;;;4.45;1.08;;;;;;;16.48;55.89;98957.69;4336160;33;35280;-90
2021/05/02 11:35:53;;;;;;;4.07;0.90;;;;;;;16.75;55.33;98945.09;4330671;33;33914;-90
2021/05/02 11:38:38;;;;;;;3.72;1.20;;;;;;;17.02;54.88;98951.81;4329929;33;33951;-90
2021/05/02 11:41:11;;;;;;;1.10;1.00;;;;;;;17.37;54.36;98939.78;4329857;33;35421;-93
2021/05/02 11:43:44;;;;;;;2.08;1.37;;;;;;;16.72;55.61;98942.88;4304661;33;34109;-95
2021/05/02 11:46:23;;;;;;;2.85;1.60;;;;;;;15.77;58.25;98977.84;4311437;33;33856;-89
2021/05/02 11:48:58;;;;;;;1.37;1.27;;;;;;;15.09;61.65;98976.56;4334520;33;34435;-90
2021/05/02 11:51:31;;;;;;;2.95;1.77;;;;;;;15.21;64.29;98965.69;4321774;33;33488;-91
2021/05/02 11:54:11;;;;;;;2.97;1.70;;;;;;;15.24;63.94;98966.06;4336549;33;32794;-90
2021/05/02 11:56:53;;;;;;;1.80;1.70;;;;;;;15.20;64.54;98967.59;4322293;33;34158;-94
2021/05/02 11:59:29;;;;;;;3.03;2.00;;;;;;;15.00;65.88;98962.50;4317443;33;34387;-96
2021/05/02 12:02:07;;;;;;;3.62;1.67;;;;;;;15.40;66.10;98966.41;4343370;33;32703;-91
2021/05/02 12:04:40;;;;;;;12.75;2.00;;;;;;;16.27;62.31;98960.03;4320687;33;35068;-91
2021/05/02 12:07:12;;;;;;;3.90;1.95;;;;;;;16.21;62.75;98969.19;4318458;33;34540;-90
2021/05/02 12:09:45;;;;;;;1.83;1.60;;;;;;;16.48;62.35;98974.06;4330997;33;34915;-90
2021/05/02 12:12:18;;;;;;;1.77;1.30;;;;;;;17.18;59.53;98977.47;4319894;33;34553;-90
2021/05/02 12:14:59;;;;;;;3.83;1.62;;;;;;;17.11;58.10;98978.47;4331927;33;33674;-92
2021/05/02 12:17:31;;;;;;;4.22;1.50;;;;;;;17.12;57.73;98980.13;4327394;33;34274;-92
2021/05/02 12:20:05;;;;;;;2.50;1.58;;;;;;;17.29;55.45;98968.38;4320764;33;33667;-91
2021/05/02 12:22:51;;;;;;;1.00;1.00;;;;;;;18.59;53.47;98953.25;4346152;33;33556;-92
2021/05/02 12:25:24;;;;;;;2.55;0.80;;;;;;;19.22;48.82;98969.12;4334550;33;33050;-93
2021/05/02 12:28:08;;;;;;;3.15;0.30;;;;;;;20.15;46.26;98978.72;4337379;33;33878;-92
2021/05/02 12:30:41;;;;;;;2.50;0.52;;;;;;;18.66;45.55;98989.44;4325420;33;34688;-91
2021/05/02 12:33:19;;;;;;;1.30;0.45;;;;;;;18.07;46.39;99000.28;4345593;33;33560;-94
2021/05/02 12:35:53;;;;;;;0.90;0.40;;;;;;;17.50;48.12;98988.59;4352479;32;33117;-90
2021/05/02 12:38:26;;;;;;;1.35;0.70;;;;;;;17.34;47.25;98992.19;4307581;33;34398;-91
2021/05/02 12:41:19;;;;;;;0.45;0.30;;;;;;;17.28;47.42;98983.09;4328290;33;34421;-90
2021/05/02 12:43:51;;;;;;;1.98;0.30;;;;;;;17.41;46.14;98987.34;4322983;33;33962;-90